Terminal Aerodrome Forecast
Issued by NWS Mt. Holly, NJ

Home | Current Version | Previous Version | Text Only | Print | Product List | Glossary On
Versions: 1 2 3 4 5 6 7 8 9 10 11 12 13 14 15
141
FTUS41 KPHI 251729
TAFTTN
TAF
KTTN 251729Z 2518/2618 22007KT P6SM SCT070 BKN150
     FM252000 25009G20KT P6SM VCTS SCT040CB BKN150
      TEMPO 2521/2523 32015G30KT 3SM TSRA SCT020 OVC040CB
     FM260100 27004KT P6SM SCT100
     FM260800 VRB02KT 5SM BR SCT100
     FM261500 30008KT P6SM SCT050=

USA.gov is the U.S. government's official web portal to all federal, state and local government web resources and services.